createdAt,value
2018-12-12T00:02:15.047Z,8.70
2018-12-12T00:04:43.770Z,8.80
2018-12-12T00:07:12.754Z,9.00
2018-12-12T00:09:41.523Z,9.00
2018-12-12T00:12:10.216Z,9.00
2018-12-12T00:14:38.866Z,9.10
2018-12-12T00:17:07.617Z,9.20
2018-12-12T00:19:36.270Z,9.20
2018-12-12T00:22:08.136Z,9.30
2018-12-12T00:24:37.123Z,9.30
2018-12-12T00:27:05.884Z,9.20
2018-12-12T00:29:34.616Z,9.30
2018-12-12T00:32:03.466Z,9.20
2018-12-12T00:34:32.325Z,9.20
2018-12-12T00:37:01.064Z,9.20
2018-12-12T00:39:29.755Z,9.30
2018-12-12T00:41:58.500Z,9.20
2018-12-12T00:44:27.281Z,9.20
2018-12-12T00:46:56.313Z,9.30
2018-12-12T00:49:25.125Z,9.20
2018-12-12T00:51:54.138Z,9.10
2018-12-12T00:54:23.043Z,9.10
2018-12-12T00:56:51.770Z,9.00
2018-12-12T00:59:20.623Z,8.80
2018-12-12T01:01:49.161Z,8.80
2018-12-12T01:04:18.015Z,8.80
2018-12-12T01:06:47.011Z,8.70
2018-12-12T01:09:15.818Z,8.60
2018-12-12T01:11:49.822Z,8.60
2018-12-12T01:14:18.692Z,8.50
2018-12-12T01:16:47.375Z,8.30
2018-12-12T01:19:16.196Z,8.30
2018-12-12T01:21:45.073Z,8.20
2018-12-12T01:24:13.832Z,8.20
2018-12-12T01:26:42.562Z,8.00
2018-12-12T01:29:11.640Z,7.80
2018-12-12T01:31:40.254Z,7.90
2018-12-12T01:34:08.887Z,7.80
2018-12-12T01:36:37.511Z,7.70
2018-12-12T01:39:07.604Z,7.70
2018-12-12T01:41:36.193Z,7.70
2018-12-12T01:44:04.851Z,7.60
2018-12-12T01:46:33.675Z,7.60
2018-12-12T01:49:02.271Z,7.50
2018-12-12T01:51:31.037Z,7.50
2018-12-12T01:53:59.879Z,7.50
2018-12-12T01:56:28.448Z,7.60
2018-12-12T01:58:57.092Z,7.60
2018-12-12T02:01:25.789Z,7.50
2018-12-12T02:03:54.648Z,7.50
2018-12-12T02:06:23.315Z,7.30
2018-12-12T02:08:52.322Z,7.20
2018-12-12T02:11:21.340Z,7.20
2018-12-12T02:13:50.234Z,7.10
2018-12-12T02:16:19.219Z,7.10
2018-12-12T02:18:47.857Z,7.10
2018-12-12T02:21:16.588Z,7.10
2018-12-12T02:23:45.378Z,7.00
2018-12-12T02:26:14.294Z,7.00
2018-12-12T02:28:42.822Z,7.10
2018-12-12T02:31:11.529Z,7.00
2018-12-12T02:33:40.286Z,7.00
2018-12-12T02:36:09.109Z,7.00
2018-12-12T02:38:37.771Z,6.90
2018-12-12T02:41:06.562Z,6.80
2018-12-12T02:43:35.371Z,6.70
2018-12-12T02:46:03.998Z,6.90
2018-12-12T02:48:32.615Z,6.90
2018-12-12T02:51:01.294Z,6.80
2018-12-12T02:53:30.248Z,6.80
2018-12-12T02:55:59.112Z,6.60
2018-12-12T02:58:27.743Z,6.70
2018-12-12T03:00:56.466Z,6.70
2018-12-12T03:03:25.098Z,6.80
2018-12-12T03:05:54.070Z,6.80
2018-12-12T03:08:22.908Z,6.80
2018-12-12T03:10:51.576Z,6.80
2018-12-12T03:13:20.338Z,7.00
2018-12-12T03:15:49.287Z,6.90
2018-12-12T03:18:17.981Z,6.90
2018-12-12T03:20:46.731Z,7.00
2018-12-12T03:23:15.411Z,6.90
2018-12-12T03:25:44.078Z,7.00
2018-12-12T03:28:12.848Z,7.10
2018-12-12T03:30:41.696Z,7.30
2018-12-12T03:33:10.439Z,7.10
2018-12-12T03:35:39.154Z,7.40
2018-12-12T03:38:07.826Z,7.30
2018-12-12T03:40:36.861Z,7.10
2018-12-12T03:43:05.950Z,6.90
2018-12-12T03:45:34.698Z,7.00
2018-12-12T03:48:03.627Z,6.90
2018-12-12T03:50:32.240Z,7.00
2018-12-12T03:53:00.998Z,7.00
2018-12-12T03:55:29.770Z,6.80
2018-12-12T03:57:58.529Z,6.70
2018-12-12T04:00:26.909Z,6.70
2018-12-12T04:02:55.736Z,6.70
2018-12-12T04:05:24.343Z,6.80
2018-12-12T04:07:53.019Z,6.80
2018-12-12T04:10:21.807Z,6.90
2018-12-12T04:12:50.560Z,6.80
2018-12-12T04:15:19.365Z,6.70
2018-12-12T04:17:47.826Z,6.60
2018-12-12T04:20:16.391Z,6.60
2018-12-12T04:22:45.094Z,6.50
2018-12-12T04:25:13.810Z,6.30
2018-12-12T04:27:42.639Z,6.30
2018-12-12T04:30:11.290Z,6.40
2018-12-12T04:32:40.011Z,6.40
2018-12-12T04:35:08.903Z,6.40
2018-12-12T04:37:37.527Z,6.60
2018-12-12T04:40:06.229Z,6.60
2018-12-12T04:42:35.105Z,6.60
2018-12-12T04:45:03.867Z,6.70
2018-12-12T04:47:32.551Z,6.70
2018-12-12T04:50:01.152Z,6.70
2018-12-12T04:52:29.879Z,6.70
2018-12-12T04:54:58.635Z,6.60
2018-12-12T04:57:27.214Z,6.50
2018-12-12T04:59:56.661Z,6.60
2018-12-12T05:02:27.925Z,6.70
2018-12-12T05:04:57.348Z,6.70
2018-12-12T05:07:26.162Z,6.70
2018-12-12T05:09:54.895Z,6.60
2018-12-12T05:12:23.523Z,6.70
2018-12-12T05:14:52.286Z,6.60
2018-12-12T05:17:21.099Z,6.70
2018-12-12T05:19:49.894Z,6.70
2018-12-12T05:22:18.674Z,6.70
2018-12-12T05:24:47.405Z,6.60
2018-12-12T05:27:16.250Z,6.60
2018-12-12T05:29:44.995Z,6.70
2018-12-12T05:32:13.723Z,6.60
2018-12-12T05:34:42.609Z,6.70
2018-12-12T05:37:12.287Z,6.50
2018-12-12T05:39:40.922Z,6.50
2018-12-12T05:42:09.638Z,6.40
2018-12-12T05:44:44.749Z,6.40
2018-12-12T05:47:13.535Z,6.30
2018-12-12T05:49:42.319Z,6.20
2018-12-12T05:52:11.007Z,6.30
2018-12-12T05:54:39.792Z,6.40
2018-12-12T05:57:08.599Z,6.30
2018-12-12T05:59:37.465Z,6.40
2018-12-12T06:02:06.242Z,6.30
2018-12-12T06:04:34.956Z,6.30
2018-12-12T06:07:03.675Z,6.10
2018-12-12T06:09:32.751Z,6.10
2018-12-12T06:12:01.529Z,6.10
2018-12-12T06:14:30.110Z,6.10
2018-12-12T06:16:58.988Z,6.40
2018-12-12T06:19:27.873Z,6.60
2018-12-12T06:21:56.743Z,6.50
2018-12-12T06:24:25.524Z,7.00
2018-12-12T06:26:54.394Z,7.80
2018-12-12T06:29:23.110Z,8.40
2018-12-12T06:31:51.852Z,8.90
2018-12-12T06:34:20.738Z,9.60
2018-12-12T06:36:49.386Z,10.20
2018-12-12T06:39:18.279Z,10.50
2018-12-12T06:41:46.959Z,11.10
2018-12-12T06:44:15.831Z,11.80
2018-12-12T06:46:44.505Z,12.70
2018-12-12T06:49:13.102Z,13.10
2018-12-12T06:51:41.781Z,13.50
2018-12-12T06:54:10.386Z,14.30
2018-12-12T06:56:39.158Z,14.80
2018-12-12T06:59:08.059Z,14.80
2018-12-12T07:01:36.891Z,15.10
2018-12-12T07:04:05.619Z,14.90
2018-12-12T07:06:34.406Z,15.70
2018-12-12T07:09:05.175Z,15.90
2018-12-12T07:11:33.893Z,16.30
2018-12-12T07:14:02.679Z,16.80
2018-12-12T07:16:31.341Z,17.00
2018-12-12T07:19:00.032Z,17.50
2018-12-12T07:21:28.788Z,18.20
2018-12-12T07:23:57.524Z,17.50
2018-12-12T07:26:26.466Z,17.70
2018-12-12T07:28:55.068Z,16.90
2018-12-12T07:31:23.872Z,17.70
2018-12-12T07:33:52.762Z,17.70
2018-12-12T07:36:21.622Z,17.30
2018-12-12T07:38:50.282Z,17.20
2018-12-12T07:41:19.039Z,17.50
2018-12-12T07:43:47.667Z,17.00
2018-12-12T07:46:17.282Z,17.50
2018-12-12T07:48:46.046Z,17.90
2018-12-12T07:51:14.753Z,18.40
2018-12-12T07:53:43.485Z,18.90
2018-12-12T07:56:12.129Z,19.00
2018-12-12T07:58:40.845Z,18.80
2018-12-12T08:01:09.389Z,19.30
2018-12-12T08:03:38.177Z,19.60
2018-12-12T08:06:06.913Z,19.80
2018-12-12T08:08:35.753Z,20.10
2018-12-12T08:11:04.400Z,20.60
2018-12-12T08:13:33.126Z,20.50
2018-12-12T08:16:02.111Z,20.50
2018-12-12T08:18:30.890Z,20.90
2018-12-12T08:20:59.765Z,20.80
2018-12-12T08:23:29.269Z,20.70
2018-12-12T08:25:58.081Z,21.20
2018-12-12T08:28:26.974Z,21.40
2018-12-12T08:30:55.808Z,21.30
2018-12-12T08:33:24.399Z,21.30
2018-12-12T08:35:53.078Z,22.40
2018-12-12T08:38:21.677Z,23.00
2018-12-12T08:40:50.494Z,23.30
2018-12-12T08:43:19.291Z,23.50
2018-12-12T08:45:48.028Z,24.30
2018-12-12T08:48:16.862Z,24.90
2018-12-12T08:50:45.650Z,24.10
2018-12-12T08:53:14.522Z,24.50
2018-12-12T08:55:43.082Z,24.60
2018-12-12T08:58:11.670Z,24.60
2018-12-12T09:00:40.399Z,24.70
2018-12-12T09:03:09.202Z,25.30
2018-12-12T09:05:37.910Z,25.70
2018-12-12T09:08:06.594Z,25.30
2018-12-12T09:10:35.338Z,25.90
2018-12-12T09:13:04.063Z,25.70
2018-12-12T09:15:32.789Z,25.60
2018-12-12T09:18:01.586Z,25.90
2018-12-12T09:20:30.218Z,25.70
2018-12-12T09:22:58.969Z,23.20
2018-12-12T09:25:27.757Z,22.70
2018-12-12T09:27:56.792Z,24.60
2018-12-12T09:30:25.614Z,25.20
2018-12-12T09:32:54.221Z,24.70
2018-12-12T09:35:22.907Z,24.70
2018-12-12T09:37:51.550Z,25.30
2018-12-12T09:40:20.229Z,25.20
2018-12-12T09:42:48.984Z,25.60
2018-12-12T09:45:21.718Z,25.50
2018-12-12T09:47:48.503Z,26.20
2018-12-12T09:50:17.549Z,26.60
2018-12-12T09:52:46.155Z,26.50
2018-12-12T09:55:15.049Z,26.20
2018-12-12T09:57:43.506Z,24.60
2018-12-12T10:00:12.200Z,21.40
2018-12-12T10:02:40.798Z,21.90
2018-12-12T10:05:09.588Z,23.50
2018-12-12T10:07:38.226Z,20.20
2018-12-12T10:10:06.957Z,22.00
2018-12-12T10:12:35.765Z,22.40
2018-12-12T10:15:04.839Z,21.60
2018-12-12T10:17:33.591Z,21.30
2018-12-12T10:20:02.270Z,19.90
2018-12-12T10:22:30.999Z,16.80
2018-12-12T10:24:59.780Z,16.40
2018-12-12T10:27:28.623Z,16.70
2018-12-12T10:29:57.463Z,17.90
2018-12-12T10:32:26.022Z,18.20
2018-12-12T10:34:54.713Z,20.90
2018-12-12T10:37:23.499Z,22.90
2018-12-12T10:39:52.508Z,23.20
2018-12-12T10:42:21.199Z,21.70
2018-12-12T10:44:49.982Z,23.30
2018-12-12T10:47:18.950Z,24.40
2018-12-12T10:49:47.335Z,24.90
2018-12-12T10:52:16.140Z,25.00
2018-12-12T10:54:44.934Z,25.20
2018-12-12T10:57:13.715Z,19.80
2018-12-12T10:59:42.511Z,19.50
2018-12-12T11:02:16.820Z,18.30
2018-12-12T11:04:45.572Z,19.10
2018-12-12T11:07:14.298Z,19.30
2018-12-12T11:09:42.854Z,17.90
2018-12-12T11:12:11.765Z,20.90
2018-12-12T11:14:40.434Z,18.40
2018-12-12T11:17:09.339Z,17.60
2018-12-12T11:19:38.063Z,17.00
2018-12-12T11:22:06.691Z,17.10
2018-12-12T11:24:35.477Z,17.50
2018-12-12T11:27:04.417Z,17.90
2018-12-12T11:29:33.282Z,18.70
2018-12-12T11:32:02.022Z,17.40
2018-12-12T11:34:30.750Z,20.30
2018-12-12T11:36:59.472Z,22.00
2018-12-12T11:39:28.094Z,20.80
2018-12-12T11:41:56.895Z,21.50
2018-12-12T11:44:25.590Z,19.50
2018-12-12T11:46:54.185Z,21.20
2018-12-12T11:49:23.048Z,19.40
2018-12-12T11:51:52.065Z,20.80
2018-12-12T11:54:20.948Z,22.30
2018-12-12T11:56:49.753Z,20.00
2018-12-12T11:59:18.421Z,21.90
2018-12-12T12:01:47.220Z,22.20
2018-12-12T12:04:15.922Z,23.80
2018-12-12T12:06:44.762Z,21.10
2018-12-12T12:09:13.347Z,20.50
2018-12-12T12:11:42.051Z,19.10
2018-12-12T12:14:10.726Z,19.20
2018-12-12T12:16:39.386Z,20.30
2018-12-12T12:19:08.107Z,20.50
2018-12-12T12:21:36.795Z,19.70
2018-12-12T12:24:05.398Z,18.40
2018-12-12T12:26:34.161Z,17.20
2018-12-12T12:29:02.954Z,19.80
2018-12-12T12:31:31.840Z,20.40
2018-12-12T12:34:03.244Z,17.80
2018-12-12T12:36:31.303Z,17.50
2018-12-12T12:38:59.823Z,18.20
2018-12-12T12:41:28.696Z,18.40
2018-12-12T12:43:57.416Z,17.20
2018-12-12T12:46:26.192Z,15.10
2018-12-12T12:48:55.117Z,14.10
2018-12-12T12:51:23.739Z,15.40
2018-12-12T12:53:52.469Z,15.40
2018-12-12T12:56:21.110Z,14.90
2018-12-12T12:58:49.734Z,15.50
2018-12-12T13:01:18.390Z,16.80
2018-12-12T13:03:46.999Z,17.60
2018-12-12T13:06:15.794Z,17.00
2018-12-12T13:08:44.501Z,16.80
2018-12-12T13:11:14.984Z,16.20
2018-12-12T13:13:43.527Z,16.00
2018-12-12T13:16:12.352Z,15.50
2018-12-12T13:18:41.264Z,16.90
2018-12-12T13:21:09.822Z,18.10
2018-12-12T13:23:38.631Z,18.50
2018-12-12T13:26:07.404Z,16.70
2018-12-12T13:28:36.207Z,16.20
2018-12-12T13:31:05.093Z,15.20
2018-12-12T13:33:33.820Z,14.00
2018-12-12T13:36:02.394Z,14.40
2018-12-12T13:38:31.052Z,13.50
2018-12-12T13:40:59.789Z,13.70
2018-12-12T13:43:28.522Z,14.10
2018-12-12T13:45:57.309Z,13.90
2018-12-12T13:48:25.834Z,13.60
2018-12-12T13:50:54.450Z,13.30
2018-12-12T13:53:23.357Z,13.30
2018-12-12T13:55:52.251Z,13.00
2018-12-12T13:58:21.009Z,13.20
2018-12-12T14:00:49.750Z,13.50
2018-12-12T14:03:18.441Z,13.50
2018-12-12T14:05:46.922Z,13.60
2018-12-12T14:08:15.539Z,13.90
2018-12-12T14:10:44.249Z,13.30
2018-12-12T14:13:13.240Z,13.30
2018-12-12T14:15:41.783Z,13.00
2018-12-12T14:18:10.628Z,12.50
2018-12-12T14:20:39.454Z,12.20
2018-12-12T14:23:08.203Z,12.20
2018-12-12T14:25:36.867Z,12.40
2018-12-12T14:28:05.653Z,12.40
2018-12-12T14:30:34.421Z,12.20
2018-12-12T14:33:03.059Z,11.90
2018-12-12T14:35:31.845Z,11.70
2018-12-12T14:38:00.444Z,11.80
2018-12-12T14:40:29.179Z,11.50
2018-12-12T14:42:58.057Z,11.60
2018-12-12T14:45:26.676Z,11.60
2018-12-12T14:47:55.546Z,11.50
2018-12-12T14:50:24.353Z,11.40
2018-12-12T14:52:53.264Z,11.50
2018-12-12T14:55:21.820Z,11.30
2018-12-12T14:57:50.565Z,11.40
2018-12-12T15:00:19.255Z,11.50
2018-12-12T15:02:48.156Z,11.20
2018-12-12T15:05:16.767Z,11.00
2018-12-12T15:07:45.663Z,11.10
2018-12-12T15:10:14.450Z,11.00
2018-12-12T15:12:43.332Z,10.90
2018-12-12T15:15:12.020Z,10.80
2018-12-12T15:17:40.711Z,10.70
2018-12-12T15:20:09.579Z,10.60
2018-12-12T15:22:38.366Z,10.50
2018-12-12T15:25:07.111Z,10.50
2018-12-12T15:27:35.931Z,10.60
2018-12-12T15:30:05.248Z,10.50
2018-12-12T15:32:34.071Z,10.60
2018-12-12T15:35:02.781Z,10.60
2018-12-12T15:37:31.498Z,10.60
2018-12-12T15:40:00.049Z,10.50
2018-12-12T15:42:28.683Z,10.50
2018-12-12T15:44:57.391Z,10.50
2018-12-12T15:47:26.052Z,10.40
2018-12-12T15:49:54.666Z,10.40
2018-12-12T15:52:23.469Z,10.40
2018-12-12T15:54:52.096Z,10.40
2018-12-12T15:57:20.996Z,10.30
2018-12-12T15:59:49.794Z,10.50
2018-12-12T16:02:18.660Z,10.40
2018-12-12T16:04:49.071Z,10.50
2018-12-12T16:07:18.176Z,10.50
2018-12-12T16:09:47.089Z,10.50
2018-12-12T16:12:15.857Z,10.60
2018-12-12T16:14:44.674Z,10.40
2018-12-12T16:17:13.330Z,10.50
2018-12-12T16:19:41.975Z,10.40
2018-12-12T16:22:10.824Z,10.40
2018-12-12T16:24:39.731Z,10.40
2018-12-12T16:27:08.584Z,10.40
2018-12-12T16:29:37.305Z,10.40
2018-12-12T16:32:06.909Z,10.30
2018-12-12T16:34:35.669Z,10.20
2018-12-12T16:37:04.387Z,10.00
2018-12-12T16:39:33.136Z,9.90
2018-12-12T16:42:01.945Z,9.90
2018-12-12T16:44:30.597Z,9.90
2018-12-12T16:46:59.147Z,9.90
2018-12-12T16:49:28.000Z,10.00
2018-12-12T16:51:56.567Z,9.70
2018-12-12T16:54:25.367Z,9.70
2018-12-12T16:56:54.027Z,9.50
2018-12-12T16:59:22.719Z,9.40
2018-12-12T17:01:51.462Z,9.40
2018-12-12T17:04:20.096Z,9.60
2018-12-12T17:06:48.790Z,9.40
2018-12-12T17:09:17.685Z,9.60
2018-12-12T17:11:46.387Z,9.60
2018-12-12T17:14:15.245Z,9.40
2018-12-12T17:16:43.890Z,9.20
2018-12-12T17:19:12.410Z,9.10
2018-12-12T17:21:41.111Z,9.00
2018-12-12T17:24:09.897Z,8.50
2018-12-12T17:26:38.518Z,8.60
2018-12-12T17:29:07.262Z,8.60
2018-12-12T17:31:36.087Z,8.60
2018-12-12T17:34:04.865Z,8.50
2018-12-12T17:36:33.526Z,8.30
2018-12-12T17:39:02.316Z,8.20
2018-12-12T17:41:31.132Z,8.40
2018-12-12T17:43:59.702Z,8.20
2018-12-12T17:46:28.327Z,7.90
2018-12-12T17:48:57.000Z,8.00
2018-12-12T17:51:25.846Z,8.10
2018-12-12T17:53:54.619Z,8.30
2018-12-12T17:56:23.520Z,8.30
2018-12-12T17:58:52.315Z,8.20
2018-12-12T18:01:21.730Z,8.00
2018-12-12T18:03:50.483Z,8.00
2018-12-12T18:06:19.285Z,7.80
2018-12-12T18:08:48.104Z,7.80
2018-12-12T18:11:16.922Z,8.00
2018-12-12T18:13:45.707Z,8.10
2018-12-12T18:16:14.460Z,8.60
2018-12-12T18:18:43.271Z,8.40
2018-12-12T18:21:11.854Z,8.40
2018-12-12T18:23:40.546Z,8.40
2018-12-12T18:26:09.240Z,8.40
2018-12-12T18:28:37.890Z,8.50
2018-12-12T18:31:06.577Z,8.30
2018-12-12T18:33:35.329Z,8.40
2018-12-12T18:36:04.164Z,8.30
2018-12-12T18:38:32.894Z,8.10
2018-12-12T18:41:01.624Z,8.10
2018-12-12T18:43:30.486Z,8.00
2018-12-12T18:45:59.220Z,8.10
2018-12-12T18:48:27.902Z,8.30
2018-12-12T18:50:56.525Z,8.30
2018-12-12T18:53:25.419Z,8.10
2018-12-12T18:55:54.103Z,8.30
2018-12-12T18:58:23.008Z,8.60
2018-12-12T19:00:51.793Z,8.40
2018-12-12T19:03:20.577Z,8.10
2018-12-12T19:05:49.250Z,8.10
2018-12-12T19:08:18.125Z,8.20
2018-12-12T19:10:46.830Z,8.10
2018-12-12T19:13:15.574Z,8.00
2018-12-12T19:15:44.443Z,8.00
2018-12-12T19:18:13.162Z,7.90
2018-12-12T19:20:41.788Z,7.80
2018-12-12T19:23:10.468Z,7.80
2018-12-12T19:25:39.362Z,7.80
2018-12-12T19:28:08.217Z,7.90
2018-12-12T19:30:37.142Z,8.00
2018-12-12T19:33:05.507Z,8.30
2018-12-12T19:35:34.842Z,8.20
2018-12-12T19:38:03.800Z,8.30
2018-12-12T19:40:32.591Z,8.20
2018-12-12T19:43:01.174Z,8.00
2018-12-12T19:45:29.969Z,8.10
2018-12-12T19:47:58.723Z,8.10
2018-12-12T19:50:27.529Z,8.00
2018-12-12T19:52:56.226Z,8.00
2018-12-12T19:55:25.078Z,7.80
2018-12-12T19:57:53.755Z,7.70
2018-12-12T20:00:22.644Z,7.80
2018-12-12T20:02:51.382Z,7.70
2018-12-12T20:05:20.168Z,7.80
2018-12-12T20:07:48.954Z,7.90
2018-12-12T20:10:17.949Z,7.80
2018-12-12T20:12:46.606Z,8.00
2018-12-12T20:15:46.656Z,8.10
2018-12-12T20:18:15.306Z,8.40
2018-12-12T20:20:44.009Z,8.70
2018-12-12T20:23:12.622Z,8.90
2018-12-12T20:25:41.172Z,8.90
2018-12-12T20:28:09.977Z,9.00
2018-12-12T20:30:38.747Z,9.10
2018-12-12T20:33:07.515Z,9.00
2018-12-12T20:35:36.238Z,8.80
2018-12-12T20:38:07.177Z,8.90
2018-12-12T20:40:36.533Z,8.60
2018-12-12T20:43:05.173Z,8.50
2018-12-12T20:45:33.930Z,8.90
2018-12-12T20:48:02.838Z,8.60
2018-12-12T20:50:33.374Z,8.70
2018-12-12T20:53:02.361Z,9.00
2018-12-12T20:55:31.091Z,9.00
2018-12-12T20:57:59.927Z,9.00
2018-12-12T21:00:28.669Z,8.80
2018-12-12T21:02:57.407Z,8.60
2018-12-12T21:05:26.109Z,8.40
2018-12-12T21:07:54.711Z,8.30
2018-12-12T21:10:23.356Z,8.20
2018-12-12T21:12:53.297Z,8.40
2018-12-12T21:15:22.192Z,8.50
2018-12-12T21:17:50.813Z,8.50
2018-12-12T21:20:19.820Z,8.30
2018-12-12T21:22:48.732Z,8.00
2018-12-12T21:25:17.483Z,8.20
2018-12-12T21:27:46.282Z,7.90
2018-12-12T21:30:17.380Z,7.90
2018-12-12T21:32:45.780Z,7.80
2018-12-12T21:35:14.621Z,7.90
2018-12-12T21:37:43.301Z,7.70
2018-12-12T21:40:12.089Z,7.70
2018-12-12T21:42:40.775Z,7.70
2018-12-12T21:45:09.742Z,7.60
2018-12-12T21:47:38.451Z,7.70
2018-12-12T21:50:07.478Z,7.50
2018-12-12T21:52:36.214Z,7.50
2018-12-12T21:55:05.362Z,7.60
2018-12-12T21:57:34.096Z,7.80
2018-12-12T22:00:02.994Z,7.90
2018-12-12T22:02:31.975Z,7.90
2018-12-12T22:05:00.693Z,8.00
2018-12-12T22:07:29.551Z,8.20
2018-12-12T22:09:58.241Z,8.10
2018-12-12T22:12:27.037Z,8.00
2018-12-12T22:14:55.784Z,8.00
2018-12-12T22:17:24.518Z,7.90
2018-12-12T22:19:53.321Z,7.60
2018-12-12T22:22:22.166Z,7.80
2018-12-12T22:24:50.826Z,7.70
2018-12-12T22:27:19.450Z,7.70
2018-12-12T22:29:48.126Z,7.80
2018-12-12T22:32:17.134Z,7.70
2018-12-12T22:34:45.948Z,7.80
2018-12-12T22:37:14.596Z,7.80
2018-12-12T22:39:43.400Z,8.00
2018-12-12T22:42:12.244Z,8.00
2018-12-12T22:44:41.104Z,7.60
2018-12-12T22:47:09.733Z,7.50
2018-12-12T22:49:38.619Z,7.60
2018-12-12T22:52:07.350Z,7.70
2018-12-12T22:54:36.106Z,7.70
2018-12-12T22:57:04.955Z,7.60
2018-12-12T22:59:33.778Z,7.60
2018-12-12T23:02:02.375Z,7.50
2018-12-12T23:04:31.253Z,7.50
2018-12-12T23:06:59.945Z,7.50
2018-12-12T23:09:28.746Z,7.60
2018-12-12T23:11:57.381Z,7.50
2018-12-12T23:14:26.126Z,7.30
2018-12-12T23:16:55.119Z,7.40
2018-12-12T23:19:23.905Z,7.30
2018-12-12T23:21:52.789Z,7.10
2018-12-12T23:24:25.047Z,7.10
2018-12-12T23:26:52.318Z,7.10
2018-12-12T23:29:21.182Z,7.00
2018-12-12T23:31:49.922Z,7.20
2018-12-12T23:34:18.670Z,7.10
2018-12-12T23:36:47.462Z,7.30
2018-12-12T23:39:16.247Z,7.10
2018-12-12T23:41:45.006Z,7.20
2018-12-12T23:44:13.468Z,7.30
2018-12-12T23:46:42.200Z,7.40
2018-12-12T23:49:10.966Z,7.40
2018-12-12T23:51:39.341Z,7.30
2018-12-12T23:54:08.141Z,7.30
2018-12-12T23:56:36.883Z,7.40
2018-12-12T23:59:05.665Z,7.40
